sensor_id;sensor_type;location;lat;lon;timestamp;pressure;altitude;pressure_sealevel;temperature;humidity
46718;BME280;32448;44.960;-0.698;2023-08-01T00:02:17;101219.28;;;19.57;100.00
46718;BME280;32448;44.960;-0.698;2023-08-01T00:04:45;101230.84;;;19.53;100.00
46718;BME280;32448;44.960;-0.698;2023-08-01T00:07:15;101217.53;;;19.57;100.00
46718;BME280;32448;44.960;-0.698;2023-08-01T00:09:42;101209.56;;;19.57;100.00
46718;BME280;32448;44.960;-0.698;2023-08-01T00:12:10;101213.06;;;19.59;100.00
46718;BME280;32448;44.960;-0.698;2023-08-01T00:14:37;101213.94;;;19.63;100.00
46718;BME280;32448;44.960;-0.698;2023-08-01T00:17:05;101199.72;;;19.67;100.00
46718;BME280;32448;44.960;-0.698;2023-08-01T00:19:32;101201.44;;;19.70;100.00
46718;BME280;32448;44.960;-0.698;2023-08-01T00:21:59;101202.25;;;19.76;100.00
46718;BME280;32448;44.960;-0.698;2023-08-01T00:24:28;101195.13;;;19.78;100.00
46718;BME280;32448;44.960;-0.698;2023-08-01T00:26:55;101187.16;;;19.78;100.00
46718;BME280;32448;44.960;-0.698;2023-08-01T00:29:22;101177.38;;;19.85;100.00
46718;BME280;32448;44.960;-0.698;2023-08-01T00:31:50;101178.28;;;19.84;100.00
46718;BME280;32448;44.960;-0.698;2023-08-01T00:34:17;101179.13;;;19.86;100.00
46718;BME280;32448;44.960;-0.698;2023-08-01T00:36:44;101181.78;;;19.86;100.00
46718;BME280;32448;44.960;-0.698;2023-08-01T00:39:11;101173.81;;;19.87;100.00
46718;BME280;32448;44.960;-0.698;2023-08-01T00:41:39;101165.78;;;19.89;100.00
46718;BME280;32448;44.960;-0.698;2023-08-01T00:44:06;101169.31;;;19.89;100.00
46718;BME280;32448;44.960;-0.698;2023-08-01T00:46:33;101174.59;;;19.91;100.00
46718;BME280;32448;44.960;-0.698;2023-08-01T00:49:00;101164.84;;;19.93;100.00
46718;BME280;32448;44.960;-0.698;2023-08-01T00:51:29;101164.81;;;19.96;100.00
46718;BME280;32448;44.960;-0.698;2023-08-01T00:53:57;101155.09;;;19.95;100.00
46718;BME280;32448;44.960;-0.698;2023-08-01T00:56:24;101152.34;;;19.99;100.00
46718;BME280;32448;44.960;-0.698;2023-08-01T00:58:51;101150.56;;;20.02;100.00
46718;BME280;32448;44.960;-0.698;2023-08-01T01:01:19;101146.97;;;20.06;100.00
46718;BME280;32448;44.960;-0.698;2023-08-01T01:03:47;101135.34;;;20.13;100.00
46718;BME280;32448;44.960;-0.698;2023-08-01T01:06:23;101133.56;;;20.13;100.00
46718;BME280;32448;44.960;-0.698;2023-08-01T01:08:51;101131.78;;;20.14;100.00
46718;BME280;32448;44.960;-0.698;2023-08-01T01:11:20;101139.72;;;20.17;100.00
46718;BME280;32448;44.960;-0.698;2023-08-01T01:13:47;101139.69;;;20.18;100.00
46718;BME280;32448;44.960;-0.698;2023-08-01T01:16:15;101136.16;;;20.18;100.00
46718;BME280;32448;44.960;-0.698;2023-08-01T01:18:42;101130.72;;;20.24;100.00
46718;BME280;32448;44.960;-0.698;2023-08-01T01:21:09;101123.59;;;20.27;100.00
46718;BME280;32448;44.960;-0.698;2023-08-01T01:23:36;101103.25;;;20.28;100.00
46718;BME280;32448;44.960;-0.698;2023-08-01T01:26:04;101109.38;;;20.31;100.00
46718;BME280;32448;44.960;-0.698;2023-08-01T01:28:33;101107.56;;;20.35;100.00
46718;BME280;32448;44.960;-0.698;2023-08-01T01:31:01;101113.72;;;20.39;100.00
46718;BME280;32448;44.960;-0.698;2023-08-01T01:33:28;101111.91;;;20.41;100.00
46718;BME280;32448;44.960;-0.698;2023-08-01T01:35:56;101111.94;;;20.39;100.00
46718;BME280;32448;44.960;-0.698;2023-08-01T01:38:23;101105.72;;;20.40;100.00
46718;BME280;32448;44.960;-0.698;2023-08-01T01:40:50;101103.03;;;20.42;100.00
46718;BME280;32448;44.960;-0.698;2023-08-01T01:43:17;101104.66;;;20.49;100.00
46718;BME280;32448;44.960;-0.698;2023-08-01T01:45:44;101111.75;;;20.48;100.00
46718;BME280;32448;44.960;-0.698;2023-08-01T01:48:11;101105.59;;;20.46;100.00
46718;BME280;32448;44.960;-0.698;2023-08-01T01:50:38;101110.84;;;20.49;100.00
46718;BME280;32448;44.960;-0.698;2023-08-01T01:53:06;101104.69;;;20.47;100.00
46718;BME280;32448;44.960;-0.698;2023-08-01T01:55:33;101104.63;;;20.52;100.00
46718;BME280;32448;44.960;-0.698;2023-08-01T01:58:01;101103.78;;;20.48;100.00
46718;BME280;32448;44.960;-0.698;2023-08-01T02:00:28;101102.09;;;20.44;100.00
46718;BME280;32448;44.960;-0.698;2023-08-01T02:02:55;101107.44;;;20.43;100.00
46718;BME280;32448;44.960;-0.698;2023-08-01T02:05:22;101100.41;;;20.40;100.00
46718;BME280;32448;44.960;-0.698;2023-08-01T02:07:50;101095.13;;;20.39;100.00
46718;BME280;32448;44.960;-0.698;2023-08-01T02:10:17;101096.84;;;20.41;100.00
46718;BME280;32448;44.960;-0.698;2023-08-01T02:12:45;101088.91;;;20.40;100.00
46718;BME280;32448;44.960;-0.698;2023-08-01T02:15:12;101088.94;;;20.38;100.00
46718;BME280;32448;44.960;-0.698;2023-08-01T02:17:40;101078.34;;;20.35;100.00
46718;BME280;32448;44.960;-0.698;2023-08-01T02:20:07;101074.72;;;20.41;100.00
46718;BME280;32448;44.960;-0.698;2023-08-01T02:22:34;101068.59;;;20.37;100.00
46718;BME280;32448;44.960;-0.698;2023-08-01T02:25:01;101068.63;;;20.35;100.00
46718;BME280;32448;44.960;-0.698;2023-08-01T02:27:29;101072.16;;;20.36;100.00
46718;BME280;32448;44.960;-0.698;2023-08-01T02:29:56;101067.72;;;20.37;100.00
46718;BME280;32448;44.960;-0.698;2023-08-01T02:32:23;101057.97;;;20.34;100.00
46718;BME280;32448;44.960;-0.698;2023-08-01T02:34:50;101057.97;;;20.37;100.00
46718;BME280;32448;44.960;-0.698;2023-08-01T02:37:17;101053.56;;;20.36;100.00
46718;BME280;32448;44.960;-0.698;2023-08-01T02:39:44;101051.72;;;20.41;100.00
46718;BME280;32448;44.960;-0.698;2023-08-01T02:42:12;101059.69;;;20.40;100.00
46718;BME280;32448;44.960;-0.698;2023-08-01T02:44:39;101053.56;;;20.36;100.00
46718;BME280;32448;44.960;-0.698;2023-08-01T02:47:06;101050.84;;;20.39;100.00
46718;BME280;32448;44.960;-0.698;2023-08-01T02:49:34;101048.25;;;20.36;100.00
46718;BME280;32448;44.960;-0.698;2023-08-01T02:52:01;101050.00;;;20.37;100.00
46718;BME280;32448;44.960;-0.698;2023-08-01T02:54:28;101047.38;;;20.34;100.00
46718;BME280;32448;44.960;-0.698;2023-08-01T02:56:55;101044.78;;;20.31;100.00
46718;BME280;32448;44.960;-0.698;2023-08-01T02:59:22;101035.03;;;20.31;100.00
46718;BME280;32448;44.960;-0.698;2023-08-01T03:01:50;101041.19;;;20.33;100.00
46718;BME280;32448;44.960;-0.698;2023-08-01T03:04:18;101032.31;;;20.34;100.00
46718;BME280;32448;44.960;-0.698;2023-08-01T03:06:52;101032.34;;;20.33;100.00
46718;BME280;32448;44.960;-0.698;2023-08-01T03:09:19;101027.91;;;20.33;100.00
46718;BME280;32448;44.960;-0.698;2023-08-01T03:11:46;101026.16;;;20.32;100.00
46718;BME280;32448;44.960;-0.698;2023-08-01T03:14:14;101030.63;;;20.32;100.00
46718;BME280;32448;44.960;-0.698;2023-08-01T03:16:41;101026.13;;;20.34;100.00
46718;BME280;32448;44.960;-0.698;2023-08-01T03:19:09;101036.75;;;20.35;100.00
46718;BME280;32448;44.960;-0.698;2023-08-01T03:21:36;101030.66;;;20.29;100.00
46718;BME280;32448;44.960;-0.698;2023-08-01T03:24:03;101022.56;;;20.37;100.00
46718;BME280;32448;44.960;-0.698;2023-08-01T03:26:30;101026.16;;;20.32;100.00
46718;BME280;32448;44.960;-0.698;2023-08-01T03:28:57;101026.16;;;20.32;100.00
46718;BME280;32448;44.960;-0.698;2023-08-01T03:31:25;101020.91;;;20.29;100.00
46718;BME280;32448;44.960;-0.698;2023-08-01T03:33:52;101021.03;;;20.22;100.00
46718;BME280;32448;44.960;-0.698;2023-08-01T03:36:19;101021.84;;;20.27;100.00
46718;BME280;32448;44.960;-0.698;2023-08-01T03:38:47;101028.88;;;20.29;100.00
46718;BME280;32448;44.960;-0.698;2023-08-01T03:41:15;101025.25;;;20.35;100.00
46718;BME280;32448;44.960;-0.698;2023-08-01T03:43:42;101019.94;;;20.35;100.00
46718;BME280;32448;44.960;-0.698;2023-08-01T03:46:09;101023.56;;;20.31;100.00
46718;BME280;32448;44.960;-0.698;2023-08-01T03:48:36;101018.16;;;20.35;100.00
46718;BME280;32448;44.960;-0.698;2023-08-01T03:51:04;101017.28;;;20.35;100.00
46718;BME280;32448;44.960;-0.698;2023-08-01T03:53:31;101026.97;;;20.38;100.00
46718;BME280;32448;44.960;-0.698;2023-08-01T03:55:58;101016.38;;;20.36;100.00
46718;BME280;32448;44.960;-0.698;2023-08-01T03:58:25;101019.00;;;20.39;100.00
46718;BME280;32448;44.960;-0.698;2023-08-01T04:00:52;101015.50;;;20.37;100.00
46718;BME280;32448;44.960;-0.698;2023-08-01T04:03:20;101029.56;;;20.42;100.00
46718;BME280;32448;44.960;-0.698;2023-08-01T04:05:48;101023.34;;;20.43;100.00
46718;BME280;32448;44.960;-0.698;2023-08-01T04:08:16;101025.22;;;20.38;100.00
46718;BME280;32448;44.960;-0.698;2023-08-01T04:10:43;101034.00;;;20.42;100.00
46718;BME280;32448;44.960;-0.698;2023-08-01T04:13:10;101032.28;;;20.38;100.00
46718;BME280;32448;44.960;-0.698;2023-08-01T04:15:37;101040.22;;;20.41;100.00
46718;BME280;32448;44.960;-0.698;2023-08-01T04:18:04;101034.94;;;20.39;100.00
46718;BME280;32448;44.960;-0.698;2023-08-01T04:20:32;101042.06;;;20.35;100.00
46718;BME280;32448;44.960;-0.698;2023-08-01T04:22:59;101038.41;;;20.43;100.00
46718;BME280;32448;44.960;-0.698;2023-08-01T04:25:26;101051.50;;;20.52;100.00
46718;BME280;32448;44.960;-0.698;2023-08-01T04:27:54;101061.31;;;20.47;100.00
46718;BME280;32448;44.960;-0.698;2023-08-01T04:30:21;101068.50;;;20.43;100.00
46718;BME280;32448;44.960;-0.698;2023-08-01T04:32:48;101054.47;;;20.35;100.00
46718;BME280;32448;44.960;-0.698;2023-08-01T04:35:15;101046.44;;;20.40;100.00
46718;BME280;32448;44.960;-0.698;2023-08-01T04:37:43;101059.59;;;20.44;100.00
46718;BME280;32448;44.960;-0.698;2023-08-01T04:40:10;101054.25;;;20.46;100.00
46718;BME280;32448;44.960;-0.698;2023-08-01T04:42:37;101054.25;;;20.46;100.00
46718;BME280;32448;44.960;-0.698;2023-08-01T04:45:05;101051.56;;;20.47;100.00
46718;BME280;32448;44.960;-0.698;2023-08-01T04:47:33;101052.34;;;20.54;100.00
46718;BME280;32448;44.960;-0.698;2023-08-01T04:50:02;101047.06;;;20.52;100.00
46718;BME280;32448;44.960;-0.698;2023-08-01T04:52:29;101051.56;;;20.49;100.00
46718;BME280;32448;44.960;-0.698;2023-08-01T04:54:56;101049.81;;;20.46;100.00
46718;BME280;32448;44.960;-0.698;2023-08-01T04:57:23;101053.38;;;20.45;100.00
46718;BME280;32448;44.960;-0.698;2023-08-01T04:59:50;101050.72;;;20.45;100.00
46718;BME280;32448;44.960;-0.698;2023-08-01T05:02:17;101059.66;;;20.43;100.00
46718;BME280;32448;44.960;-0.698;2023-08-01T05:04:44;101061.44;;;20.42;100.00
46718;BME280;32448;44.960;-0.698;2023-08-01T05:07:11;101056.16;;;20.41;100.00
46718;BME280;32448;44.960;-0.698;2023-08-01T05:09:42;101064.09;;;20.42;100.00
46718;BME280;32448;44.960;-0.698;2023-08-01T05:12:09;101060.56;;;20.40;100.00
46718;BME280;32448;44.960;-0.698;2023-08-01T05:14:36;101067.66;;;20.41;100.00
46718;BME280;32448;44.960;-0.698;2023-08-01T05:17:04;101063.22;;;20.40;100.00
46718;BME280;32448;44.960;-0.698;2023-08-01T05:19:31;101064.09;;;20.41;100.00
46718;BME280;32448;44.960;-0.698;2023-08-01T05:21:58;101067.50;;;20.47;100.00
46718;BME280;32448;44.960;-0.698;2023-08-01T05:24:25;101065.69;;;20.51;100.00
46718;BME280;32448;44.960;-0.698;2023-08-01T05:26:52;101066.53;;;20.53;100.00
46718;BME280;32448;44.960;-0.698;2023-08-01T05:29:19;101071.72;;;20.59;100.00
46718;BME280;32448;44.960;-0.698;2023-08-01T05:31:46;101075.28;;;20.56;100.00
46718;BME280;32448;44.960;-0.698;2023-08-01T05:34:13;101066.34;;;20.62;100.00
46718;BME280;32448;44.960;-0.698;2023-08-01T05:36:40;101074.41;;;20.57;100.00
46718;BME280;32448;44.960;-0.698;2023-08-01T05:39:08;101075.19;;;20.62;100.00
46718;BME280;32448;44.960;-0.698;2023-08-01T05:41:36;101077.88;;;20.61;100.00
46718;BME280;32448;44.960;-0.698;2023-08-01T05:44:03;101068.97;;;20.63;100.00
46718;BME280;32448;44.960;-0.698;2023-08-01T05:46:30;101075.16;;;20.65;100.00
46718;BME280;32448;44.960;-0.698;2023-08-01T05:48:58;101066.16;;;20.71;100.00
46718;BME280;32448;44.960;-0.698;2023-08-01T05:51:26;101071.47;;;20.71;100.00
46718;BME280;32448;44.960;-0.698;2023-08-01T05:53:55;101070.53;;;20.74;100.00
46718;BME280;32448;44.960;-0.698;2023-08-01T05:56:23;101074.09;;;20.74;100.00
46718;BME280;32448;44.960;-0.698;2023-08-01T05:58:50;101078.50;;;20.74;100.00
46718;BME280;32448;44.960;-0.698;2023-08-01T06:01:17;101073.19;;;20.75;100.00
46718;BME280;32448;44.960;-0.698;2023-08-01T06:03:46;101068.00;;;20.67;100.00
46718;BME280;32448;44.960;-0.698;2023-08-01T06:06:13;101075.97;;;20.67;100.00
46718;BME280;32448;44.960;-0.698;2023-08-01T06:08:40;101084.75;;;20.71;100.00
46718;BME280;32448;44.960;-0.698;2023-08-01T06:11:07;101077.72;;;20.68;100.00
46718;BME280;32448;44.960;-0.698;2023-08-01T06:13:34;101072.44;;;20.67;100.00
46718;BME280;32448;44.960;-0.698;2023-08-01T06:16:01;101067.97;;;20.69;100.00
46718;BME280;32448;44.960;-0.698;2023-08-01T06:18:29;101071.44;;;20.73;100.00
46718;BME280;32448;44.960;-0.698;2023-08-01T06:20:56;101081.06;;;20.78;100.00
46718;BME280;32448;44.960;-0.698;2023-08-01T06:23:24;101070.44;;;20.78;100.00
46718;BME280;32448;44.960;-0.698;2023-08-01T06:25:51;101074.88;;;20.78;100.00
46718;BME280;32448;44.960;-0.698;2023-08-01T06:28:18;101075.66;;;20.83;100.00
46718;BME280;32448;44.960;-0.698;2023-08-01T06:30:45;101073.06;;;20.80;100.00
46718;BME280;32448;44.960;-0.698;2023-08-01T06:33:12;101072.97;;;20.84;100.00
46718;BME280;32448;44.960;-0.698;2023-08-01T06:35:40;101086.22;;;20.87;100.00
46718;BME280;32448;44.960;-0.698;2023-08-01T06:38:07;101083.44;;;20.92;100.00
46718;BME280;32448;44.960;-0.698;2023-08-01T06:40:34;101084.28;;;20.94;100.00
46718;BME280;32448;44.960;-0.698;2023-08-01T06:43:01;101085.13;;;20.97;100.00
46718;BME280;32448;44.960;-0.698;2023-08-01T06:45:28;101095.63;;;21.02;100.00
46718;BME280;32448;44.960;-0.698;2023-08-01T06:47:55;101095.59;;;21.05;100.00
46718;BME280;32448;44.960;-0.698;2023-08-01T06:50:23;101093.75;;;21.08;100.00
46718;BME280;32448;44.960;-0.698;2023-08-01T06:52:50;101090.91;;;21.16;100.00
46718;BME280;32448;44.960;-0.698;2023-08-01T06:55:17;101094.50;;;21.14;100.00
46718;BME280;32448;44.960;-0.698;2023-08-01T06:57:44;101094.47;;;21.15;100.00
46718;BME280;32448;44.960;-0.698;2023-08-01T07:00:11;101110.38;;;21.20;100.00
46718;BME280;32448;44.960;-0.698;2023-08-01T07:02:38;101104.31;;;21.10;100.00
46718;BME280;32448;44.960;-0.698;2023-08-01T07:05:06;101114.81;;;21.19;100.00
46718;BME280;32448;44.960;-0.698;2023-08-01T07:07:33;101117.50;;;21.16;100.00
46718;BME280;32448;44.960;-0.698;2023-08-01T07:10:00;101121.81;;;21.22;100.00
46718;BME280;32448;44.960;-0.698;2023-08-01T07:12:27;101128.22;;;21.12;100.00
46718;BME280;32448;44.960;-0.698;2023-08-01T07:14:54;101122.09;;;21.08;100.00
46718;BME280;32448;44.960;-0.698;2023-08-01T07:17:22;101122.25;;;21.00;100.00
46718;BME280;32448;44.960;-0.698;2023-08-01T07:19:49;101123.88;;;21.09;100.00
46718;BME280;32448;44.960;-0.698;2023-08-01T07:22:16;101121.03;;;21.17;100.00
46718;BME280;32448;44.960;-0.698;2023-08-01T07:24:43;101122.63;;;21.27;100.00
46718;BME280;32448;44.960;-0.698;2023-08-01T07:27:10;101129.66;;;21.29;100.00
46718;BME280;32448;44.960;-0.698;2023-08-01T07:29:39;101119.22;;;21.20;100.00
46718;BME280;32448;44.960;-0.698;2023-08-01T07:32:07;101124.44;;;21.25;100.00
46718;BME280;32448;44.960;-0.698;2023-08-01T07:34:34;101127.78;;;21.33;100.00
46718;BME280;32448;44.960;-0.698;2023-08-01T07:37:02;101124.34;;;21.29;100.00
46718;BME280;32448;44.960;-0.698;2023-08-01T07:39:29;101132.06;;;21.41;100.00
46718;BME280;32448;44.960;-0.698;2023-08-01T07:41:56;101141.91;;;21.36;100.00
46718;BME280;32448;44.960;-0.698;2023-08-01T07:44:23;101133.66;;;21.49;100.00
46718;BME280;32448;44.960;-0.698;2023-08-01T07:46:50;101144.13;;;21.56;100.00
46718;BME280;32448;44.960;-0.698;2023-08-01T07:49:17;101138.72;;;21.61;100.00
46718;BME280;32448;44.960;-0.698;2023-08-01T07:51:44;101140.75;;;21.48;100.00
46718;BME280;32448;44.960;-0.698;2023-08-01T07:54:12;101127.69;;;21.37;100.00
46718;BME280;32448;44.960;-0.698;2023-08-01T07:56:39;101127.56;;;21.43;100.00
46718;BME280;32448;44.960;-0.698;2023-08-01T07:59:06;101128.97;;;21.60;100.00
46718;BME280;32448;44.960;-0.698;2023-08-01T08:01:34;101130.81;;;21.56;100.00
46718;BME280;32448;44.960;-0.698;2023-08-01T08:04:01;101120.78;;;21.69;100.00
46718;BME280;32448;44.960;-0.698;2023-08-01T08:06:31;101117.88;;;21.79;100.00
46718;BME280;32448;44.960;-0.698;2023-08-01T08:08:58;101111.28;;;21.96;100.00
46718;BME280;32448;44.960;-0.698;2023-08-01T08:11:25;101124.38;;;22.05;100.00
46718;BME280;32448;44.960;-0.698;2023-08-01T08:17:39;101107.06;;;22.23;100.00
46718;BME280;32448;44.960;-0.698;2023-08-01T08:24:03;101110.84;;;22.48;100.00
46718;BME280;32448;44.960;-0.698;2023-08-01T08:26:31;101104.94;;;22.37;100.00
46718;BME280;32448;44.960;-0.698;2023-08-01T08:29:00;101119.13;;;22.37;100.00
46718;BME280;32448;44.960;-0.698;2023-08-01T08:31:27;101120.38;;;22.23;100.00
46718;BME280;32448;44.960;-0.698;2023-08-01T08:33:54;101124.03;;;22.20;100.00
46718;BME280;32448;44.960;-0.698;2023-08-01T08:36:22;101125.69;;;22.23;100.00
46718;BME280;32448;44.960;-0.698;2023-08-01T08:38:49;101114.28;;;22.19;100.00
46718;BME280;32448;44.960;-0.698;2023-08-01T08:41:20;101115.59;;;22.37;100.00
46718;BME280;32448;44.960;-0.698;2023-08-01T08:43:48;101112.31;;;22.60;100.00
46718;BME280;32448;44.960;-0.698;2023-08-01T08:46:16;101115.16;;;22.86;100.00
46718;BME280;32448;44.960;-0.698;2023-08-01T08:48:43;101109.69;;;22.91;100.00
46718;BME280;32448;44.960;-0.698;2023-08-01T08:51:13;101099.19;;;22.86;100.00
46718;BME280;32448;44.960;-0.698;2023-08-01T08:53:41;101102.53;;;22.93;100.00
46718;BME280;32448;44.960;-0.698;2023-08-01T08:56:09;101106.59;;;23.06;100.00
46718;BME280;32448;44.960;-0.698;2023-08-01T08:58:36;101103.78;;;23.10;100.00
46718;BME280;32448;44.960;-0.698;2023-08-01T09:01:07;101102.09;;;23.08;100.00
46718;BME280;32448;44.960;-0.698;2023-08-01T09:03:35;101104.81;;;23.06;100.00
46718;BME280;32448;44.960;-0.698;2023-08-01T09:06:11;101096.25;;;23.24;100.00
46718;BME280;32448;44.960;-0.698;2023-08-01T09:08:39;101095.75;;;23.41;100.00
46718;BME280;32448;44.960;-0.698;2023-08-01T09:11:08;101096.72;;;23.39;100.00
46718;BME280;32448;44.960;-0.698;2023-08-01T09:13:35;101087.00;;;23.36;100.00
46718;BME280;32448;44.960;-0.698;2023-08-01T09:16:02;101095.25;;;23.58;100.00
46718;BME280;32448;44.960;-0.698;2023-08-01T09:18:32;101099.06;;;23.77;100.00
46718;BME280;32448;44.960;-0.698;2023-08-01T09:20:59;101096.25;;;23.82;100.00
46718;BME280;32448;44.960;-0.698;2023-08-01T09:23:29;101101.75;;;24.04;100.00
46718;BME280;32448;44.960;-0.698;2023-08-01T09:25:57;101101.25;;;23.92;100.00
46718;BME280;32448;44.960;-0.698;2023-08-01T09:28:26;101094.28;;;23.87;100.00
46718;BME280;32448;44.960;-0.698;2023-08-01T09:30:54;101092.72;;;24.08;100.00
46718;BME280;32448;44.960;-0.698;2023-08-01T09:33:22;101091.41;;;24.19;100.00
46718;BME280;32448;44.960;-0.698;2023-08-01T09:35:49;101101.84;;;24.28;100.00
46718;BME280;32448;44.960;-0.698;2023-08-01T09:38:17;101094.34;;;24.40;100.00
46718;BME280;32448;44.960;-0.698;2023-08-01T09:40:45;101090.00;;;24.36;100.00
46718;BME280;32448;44.960;-0.698;2023-08-01T09:43:12;101094.81;;;24.51;100.00
46718;BME280;32448;44.960;-0.698;2023-08-01T09:45:50;101096.78;;;24.71;100.00
46718;BME280;32448;44.960;-0.698;2023-08-01T09:48:24;101108.16;;;24.76;100.00
46718;BME280;32448;44.960;-0.698;2023-08-01T09:50:52;101097.06;;;24.86;100.00
46718;BME280;32448;44.960;-0.698;2023-08-01T09:53:20;101097.47;;;25.00;100.00
46718;BME280;32448;44.960;-0.698;2023-08-01T09:55:47;101099.53;;;25.17;100.00
46718;BME280;32448;44.960;-0.698;2023-08-01T09:58:16;101107.09;;;25.29;100.00
46718;BME280;32448;44.960;-0.698;2023-08-01T10:00:44;101104.28;;;25.32;100.00
46718;BME280;32448;44.960;-0.698;2023-08-01T10:03:11;101102.91;;;25.44;100.00
46718;BME280;32448;44.960;-0.698;2023-08-01T10:05:38;101093.13;;;25.66;100.00
46718;BME280;32448;44.960;-0.698;2023-08-01T10:08:06;101096.94;;;25.61;100.00
46718;BME280;32448;44.960;-0.698;2023-08-01T10:10:34;101099.25;;;25.47;100.00
46718;BME280;32448;44.960;-0.698;2023-08-01T10:13:01;101106.00;;;25.57;100.00
46718;BME280;32448;44.960;-0.698;2023-08-01T10:15:28;101094.78;;;25.70;100.00
46718;BME280;32448;44.960;-0.698;2023-08-01T10:17:56;101109.03;;;25.71;100.00
46718;BME280;32448;44.960;-0.698;2023-08-01T10:20:23;101093.28;;;25.40;100.00
46718;BME280;32448;44.960;-0.698;2023-08-01T10:22:51;101104.56;;;25.48;100.00
46718;BME280;32448;44.960;-0.698;2023-08-01T10:25:18;101102.75;;;25.49;100.00
46718;BME280;32448;44.960;-0.698;2023-08-01T10:27:56;101111.34;;;25.57;100.00
46718;BME280;32448;44.960;-0.698;2023-08-01T10:30:27;101107.50;;;25.64;100.00
46718;BME280;32448;44.960;-0.698;2023-08-01T10:32:55;101100.50;;;25.83;100.00
46718;BME280;32448;44.960;-0.698;2023-08-01T10:38:03;101107.28;;;25.70;100.00
46718;BME280;32448;44.960;-0.698;2023-08-01T10:40:34;101113.31;;;25.52;100.00
46718;BME280;32448;44.960;-0.698;2023-08-01T10:43:01;101115.13;;;25.74;100.00
46718;BME280;32448;44.960;-0.698;2023-08-01T10:45:29;101110.56;;;25.77;100.00
46718;BME280;32448;44.960;-0.698;2023-08-01T10:48:06;101109.09;;;25.91;100.00
46718;BME280;32448;44.960;-0.698;2023-08-01T10:50:34;101114.19;;;25.97;100.00
46718;BME280;32448;44.960;-0.698;2023-08-01T10:53:02;101109.53;;;26.02;100.00
46718;BME280;32448;44.960;-0.698;2023-08-01T10:55:38;101108.47;;;26.28;100.00
46718;BME280;32448;44.960;-0.698;2023-08-01T10:58:05;101110.19;;;26.29;100.00
46718;BME280;32448;44.960;-0.698;2023-08-01T11:00:33;101108.13;;;26.14;100.00
46718;BME280;32448;44.960;-0.698;2023-08-01T11:03:00;101119.19;;;25.85;100.00
46718;BME280;32448;44.960;-0.698;2023-08-01T11:05:27;101115.44;;;25.89;100.00
46718;BME280;32448;44.960;-0.698;2023-08-01T11:07:56;101122.53;;;26.11;100.00
46718;BME280;32448;44.960;-0.698;2023-08-01T11:10:27;101110.28;;;26.28;100.00
46718;BME280;32448;44.960;-0.698;2023-08-01T11:12:55;101099.09;;;26.17;100.00
46718;BME280;32448;44.960;-0.698;2023-08-01T11:15:23;101103.44;;;26.19;100.00
46718;BME280;32448;44.960;-0.698;2023-08-01T11:17:54;101103.63;;;26.57;100.00
46718;BME280;32448;44.960;-0.698;2023-08-01T11:20:22;101097.44;;;26.75;100.00
46718;BME280;32448;44.960;-0.698;2023-08-01T11:25:30;101105.91;;;26.45;100.00
46718;BME280;32448;44.960;-0.698;2023-08-01T11:28:03;101110.88;;;26.55;100.00
46718;BME280;32448;44.960;-0.698;2023-08-01T11:30:31;101104.03;;;26.68;100.00
46718;BME280;32448;44.960;-0.698;2023-08-01T11:33:02;101106.72;;;26.48;100.00
46718;BME280;32448;44.960;-0.698;2023-08-01T11:35:39;101110.28;;;26.48;100.00
46718;BME280;32448;44.960;-0.698;2023-08-01T11:38:07;101108.66;;;26.64;100.00
46718;BME280;32448;44.960;-0.698;2023-08-01T11:40:34;101096.94;;;26.67;100.00
46718;BME280;32448;44.960;-0.698;2023-08-01T11:43:01;101101.06;;;26.74;100.00
46718;BME280;32448;44.960;-0.698;2023-08-01T11:45:29;101099.72;;;26.64;100.00
46718;BME280;32448;44.960;-0.698;2023-08-01T11:47:56;101110.00;;;26.54;100.00
46718;BME280;32448;44.960;-0.698;2023-08-01T11:50:24;101103.63;;;26.57;100.00
46718;BME280;32448;44.960;-0.698;2023-08-01T11:52:52;101099.75;;;26.84;100.00
46718;BME280;32448;44.960;-0.698;2023-08-01T11:55:20;101104.81;;;26.90;100.00
46718;BME280;32448;44.960;-0.698;2023-08-01T11:57:57;101104.28;;;26.82;100.00
46718;BME280;32448;44.960;-0.698;2023-08-01T12:00:25;101102.63;;;26.79;100.00
46718;BME280;32448;44.960;-0.698;2023-08-01T12:03:02;101107.03;;;26.80;100.00
46718;BME280;32448;44.960;-0.698;2023-08-01T12:05:30;101096.94;;;26.46;100.00
46718;BME280;32448;44.960;-0.698;2023-08-01T12:08:19;101097.19;;;26.19;100.00
46718;BME280;32448;44.960;-0.698;2023-08-01T12:10:45;101105.63;;;26.09;100.00
46718;BME280;32448;44.960;-0.698;2023-08-01T12:13:19;101109.00;;;26.36;100.00
46718;BME280;32448;44.960;-0.698;2023-08-01T12:15:47;101105.91;;;26.66;100.00
46718;BME280;32448;44.960;-0.698;2023-08-01T12:18:22;101102.63;;;26.59;100.00
46718;BME280;32448;44.960;-0.698;2023-08-01T12:21:09;101101.84;;;26.37;100.00
46718;BME280;32448;44.960;-0.698;2023-08-01T12:23:36;101093.50;;;26.63;100.00
46718;BME280;32448;44.960;-0.698;2023-08-01T12:26:03;101095.25;;;26.64;100.00
46718;BME280;32448;44.960;-0.698;2023-08-01T12:28:30;101101.47;;;26.65;100.00
46718;BME280;32448;44.960;-0.698;2023-08-01T12:30:57;101090.81;;;26.83;100.00
46718;BME280;32448;44.960;-0.698;2023-08-01T12:33:25;101088.25;;;27.01;100.00
46718;BME280;32448;44.960;-0.698;2023-08-01T12:35:54;101089.25;;;26.98;100.00
46718;BME280;32448;44.960;-0.698;2023-08-01T12:38:21;101093.63;;;27.01;100.00
46718;BME280;32448;44.960;-0.698;2023-08-01T12:40:48;101086.38;;;27.22;100.00
46718;BME280;32448;44.960;-0.698;2023-08-01T12:43:15;101077.09;;;27.29;100.00
46718;BME280;32448;44.960;-0.698;2023-08-01T12:45:43;101093.66;;;27.38;100.00
46718;BME280;32448;44.960;-0.698;2023-08-01T12:48:16;101094.00;;;27.31;100.00